createdAt,value
2023-08-11T00:07:57.132Z,16.90
2023-08-11T00:17:57.728Z,17.40
2023-08-11T00:27:58.271Z,19.60
2023-08-11T00:37:58.800Z,19.60
2023-08-11T00:47:59.396Z,18.20
2023-08-11T00:57:59.913Z,17.90
2023-08-11T01:08:00.491Z,18.70
2023-08-11T01:18:01.044Z,18.90
2023-08-11T01:28:01.620Z,17.90
2023-08-11T01:38:02.139Z,17.60
2023-08-11T01:48:02.921Z,18.30
2023-08-11T01:58:03.099Z,18.20
2023-08-11T02:08:03.671Z,17.70
2023-08-11T02:18:04.220Z,16.90
2023-08-11T02:28:04.751Z,20.30
2023-08-11T02:38:05.300Z,16.90
2023-08-11T02:48:05.893Z,15.90
2023-08-11T02:58:06.396Z,16.10
2023-08-11T03:08:06.959Z,18.00
2023-08-11T03:18:07.478Z,18.00
2023-08-11T03:28:08.056Z,16.40
2023-08-11T03:38:08.535Z,15.80
2023-08-11T03:48:09.080Z,15.10
2023-08-11T03:58:16.536Z,15.20
2023-08-11T04:08:10.035Z,16.90
2023-08-11T04:18:10.530Z,15.20
2023-08-11T04:28:11.054Z,15.30
2023-08-11T04:38:11.544Z,16.10
2023-08-11T04:48:12.107Z,16.60
2023-08-11T04:58:12.578Z,17.20
2023-08-11T05:08:13.126Z,17.60
2023-08-11T05:18:13.595Z,14.90
2023-08-11T05:28:14.105Z,15.70
2023-08-11T05:38:14.583Z,13.30
2023-08-11T05:48:15.109Z,13.80
2023-08-11T05:58:15.582Z,13.30
2023-08-11T06:08:16.106Z,10.20
2023-08-11T06:18:16.585Z,13.80
2023-08-11T06:28:17.128Z,9.80
2023-08-11T06:38:17.584Z,12.00
2023-08-11T06:48:18.101Z,16.80
2023-08-11T06:58:18.573Z,13.60
2023-08-11T07:08:19.083Z,11.70
2023-08-11T07:18:19.567Z,15.40
2023-08-11T07:28:20.251Z,23.70
2023-08-11T07:38:20.727Z,9.30
2023-08-11T07:48:21.230Z,11.00
2023-08-11T07:58:21.692Z,8.90
2023-08-11T08:08:22.206Z,11.70
2023-08-11T08:18:22.684Z,10.30
2023-08-11T08:28:23.198Z,11.80
2023-08-11T08:38:23.686Z,9.30
2023-08-11T08:48:24.214Z,8.60
2023-08-11T08:58:24.715Z,9.40
2023-08-11T09:08:25.261Z,10.50
2023-08-11T09:18:25.730Z,9.10
2023-08-11T09:28:26.230Z,7.60
2023-08-11T09:38:26.715Z,25.20
2023-08-11T09:48:27.261Z,14.20
2023-08-11T09:58:27.721Z,17.90
2023-08-11T10:08:35.242Z,4.70
2023-08-11T10:18:28.707Z,9.10
2023-08-11T10:28:29.267Z,13.60
2023-08-11T10:38:29.694Z,9.70
2023-08-11T10:48:30.212Z,6.00
2023-08-11T10:58:30.696Z,4.90
2023-08-11T11:08:31.217Z,5.70
2023-08-11T11:18:31.700Z,6.30
2023-08-11T11:28:32.210Z,5.90
2023-08-11T11:38:32.681Z,10.40
2023-08-11T11:48:33.203Z,5.50
2023-08-11T11:58:33.673Z,7.90
2023-08-11T12:08:34.187Z,5.20
2023-08-11T12:18:34.650Z,5.30
2023-08-11T12:28:35.164Z,6.80
2023-08-11T12:38:35.646Z,4.50
2023-08-11T12:48:36.190Z,8.10
2023-08-11T12:58:36.672Z,4.90
2023-08-11T13:08:37.185Z,8.50
2023-08-11T13:18:37.661Z,4.80
2023-08-11T13:28:38.191Z,4.10
2023-08-11T13:38:38.657Z,5.30
2023-08-11T13:48:39.201Z,4.50
2023-08-11T13:58:39.632Z,3.30
2023-08-11T14:08:40.161Z,2.70
2023-08-11T14:18:40.656Z,4.30
2023-08-11T14:28:41.150Z,4.70
2023-08-11T14:38:41.625Z,3.60
2023-08-11T14:48:42.139Z,4.30
2023-08-11T14:58:42.623Z,4.20
2023-08-11T15:08:43.159Z,4.10
2023-08-11T15:18:43.663Z,3.90
2023-08-11T15:28:44.170Z,3.90
2023-08-11T15:38:44.640Z,4.30
2023-08-11T15:48:45.152Z,6.10
2023-08-11T15:58:45.638Z,4.70
2023-08-11T16:08:53.177Z,5.40
2023-08-11T16:18:46.658Z,5.20
2023-08-11T16:28:47.166Z,4.20
2023-08-11T16:38:47.670Z,5.90
2023-08-11T16:48:48.161Z,3.80
2023-08-11T16:58:48.645Z,5.70
2023-08-11T17:08:49.156Z,5.70
2023-08-11T17:18:50.937Z,4.10
2023-08-11T17:28:50.227Z,5.90
2023-08-11T17:38:50.722Z,6.50
2023-08-11T17:48:51.239Z,5.40
2023-08-11T17:58:51.720Z,5.80
2023-08-11T18:08:52.238Z,5.70
2023-08-11T18:18:52.714Z,5.40
2023-08-11T18:28:53.325Z,6.30
2023-08-11T18:38:53.804Z,6.20
2023-08-11T18:48:54.347Z,6.10
2023-08-11T18:58:54.826Z,8.20
2023-08-11T19:08:55.355Z,7.50
2023-08-11T19:18:55.913Z,8.40
2023-08-11T19:28:56.505Z,9.60
2023-08-11T19:38:57.039Z,8.10
2023-08-11T19:48:57.617Z,13.20
2023-08-11T19:58:58.180Z,15.10
2023-08-11T20:08:58.729Z,11.40
2023-08-11T20:18:59.277Z,12.30
2023-08-11T20:28:59.887Z,10.30
2023-08-11T20:39:00.407Z,9.60
2023-08-11T20:49:00.982Z,9.60
2023-08-11T20:59:01.502Z,9.70
2023-08-11T21:09:02.077Z,15.80
2023-08-11T21:19:02.614Z,12.10
2023-08-11T21:29:03.227Z,10.50
2023-08-11T21:39:03.763Z,13.80
2023-08-11T21:49:04.352Z,9.50
2023-08-11T21:59:04.883Z,9.20
2023-08-11T22:09:05.520Z,9.30
2023-08-11T22:19:06.060Z,10.80
2023-08-11T22:29:06.733Z,9.30
2023-08-11T22:39:07.241Z,9.20
2023-08-11T22:49:07.871Z,8.30
2023-08-11T22:59:08.379Z,9.00
2023-08-11T23:09:08.940Z,8.00
2023-08-11T23:19:09.471Z,7.10
2023-08-11T23:29:10.057Z,8.20
2023-08-11T23:39:10.596Z,9.10
2023-08-11T23:49:11.155Z,8.20
2023-08-11T23:59:11.675Z,7.50
